Time;durP1;ratioP1;P1;durP2;ratioP2;P2;SDS_P1;SDS_P2;PMS_P1;PMS_P2;Temp;Humidity;BMP_temperature;BMP_pressure;BME280_temperature;BME280_humidity;BME280_pressure;Samples;Min_cycle;Max_cycle;Signal;HPM_P1;HPM_P2
2023/03/20 00:04:53;;;;;;;51.80;26.60;;;;;;;9.67;48.85;99016.72;223035;183;137562;-73
2023/03/20 00:09:57;;;;;;;46.10;27.10;;;;;;;9.81;48.34;99013.95;223260;183;149292;-74
2023/03/20 00:15:04;;;;;;;44.90;25.40;;;;;;;9.88;47.91;99009.45;222974;182;140623;-72
2023/03/20 00:20:13;;;;;;;45.00;26.30;;;;;;;9.92;47.81;99014.67;221348;183;137978;-73
2023/03/20 00:25:23;;;;;;;49.70;27.10;;;;;;;9.95;47.76;99018.60;223645;183;146886;-73
2023/03/20 00:30:30;;;;;;;43.00;26.10;;;;;;;9.98;47.82;99014.51;222120;184;138852;-75
2023/03/20 00:35:35;;;;;;;47.00;27.00;;;;;;;10.06;47.67;99006.96;223565;183;137747;-75
2023/03/20 00:40:39;;;;;;;48.50;27.00;;;;;;;10.14;47.35;99004.11;223594;183;147273;-74
2023/03/20 00:45:45;;;;;;;47.80;26.00;;;;;;;10.15;47.18;98997.88;223442;184;138302;-74
2023/03/20 00:50:49;;;;;;;43.90;25.80;;;;;;;10.14;47.12;98997.91;223526;184;137645;-74
2023/03/20 00:55:52;;;;;;;43.70;26.60;;;;;;;10.16;47.03;98996.73;223634;184;147915;-75
2023/03/20 01:00:56;;;;;;;43.30;26.20;;;;;;;10.14;47.15;98993.86;223550;183;139044;-76
2023/03/20 01:05:59;;;;;;;45.80;26.40;;;;;;;10.10;47.03;98999.23;222698;184;137534;-75
2023/03/20 01:11:03;;;;;;;45.10;26.80;;;;;;;10.10;47.01;99000.84;223498;183;148453;-75
2023/03/20 01:16:22;;;;;;;46.00;26.90;;;;;;;10.13;46.91;98996.95;223453;183;139301;-74
2023/03/20 01:21:26;;;;;;;42.90;26.20;;;;;;;10.10;46.89;98995.71;223540;183;137072;-74
2023/03/20 01:26:35;;;;;;;44.10;26.40;;;;;;;10.03;47.31;98999.68;223506;183;147527;-74
2023/03/20 01:31:38;;;;;;;43.80;27.00;;;;;;;9.91;47.58;98993.84;223713;182;138454;-73
2023/03/20 01:36:52;;;;;;;47.00;28.50;;;;;;;9.89;47.56;98993.27;223752;182;137732;-73
2023/03/20 01:41:55;;;;;;;45.10;27.00;;;;;;;9.88;47.82;98993.16;223622;183;147158;-73
2023/03/20 01:47:11;;;;;;;44.90;27.30;;;;;;;9.77;48.44;98994.14;223568;183;276001;-71
2023/03/20 01:52:15;;;;;;;47.60;28.40;;;;;;;9.63;48.96;98994.64;223591;183;137334;-75
2023/03/20 01:57:23;;;;;;;45.50;27.60;;;;;;;9.54;49.32;98993.60;223560;183;147747;-75
2023/03/20 02:02:29;;;;;;;50.40;29.80;;;;;;;9.47;49.36;98996.30;223540;183;138453;-74
2023/03/20 02:07:34;;;;;;;46.20;28.40;;;;;;;9.54;49.26;99001.52;221697;183;137343;-74
2023/03/20 02:12:41;;;;;;;45.00;27.60;;;;;;;9.52;49.95;98999.15;223652;183;147663;-74
2023/03/20 02:17:45;;;;;;;54.90;30.50;;;;;;;9.40;50.28;99001.98;223780;183;139351;-74
2023/03/20 02:23:08;;;;;;;50.90;30.40;;;;;;;9.45;49.70;98997.44;223623;183;138078;-74
2023/03/20 02:28:34;;;;;;;54.20;30.60;;;;;;;9.63;49.45;98993.02;223630;183;146776;-73
2023/03/20 02:33:50;;;;;;;59.00;32.20;;;;;;;9.80;49.07;98989.58;222184;183;139046;-73
2023/03/20 02:39:51;;;;;;;55.70;32.20;;;;;;;9.84;48.92;98987.67;223593;183;137573;-73
2023/03/20 02:45:26;;;;;;;51.90;31.20;;;;;;;9.92;48.84;98990.44;223317;184;147142;-73
2023/03/20 02:50:50;;;;;;;51.80;31.10;;;;;;;9.97;48.61;98987.27;223530;183;139357;-72
2023/03/20 02:56:07;;;;;;;53.70;30.50;;;;;;;10.00;48.51;98984.47;223608;183;137792;-72
2023/03/20 03:01:20;;;;;;;56.40;31.80;;;;;;;10.06;48.47;98982.32;223836;182;148264;-73
2023/03/20 03:06:31;;;;;;;59.00;31.80;;;;;;;10.11;48.27;98977.59;223595;182;138899;-73
2023/03/20 03:11:41;;;;;;;53.80;30.90;;;;;;;10.10;48.28;98971.05;223765;183;138191;-73
2023/03/20 03:16:47;;;;;;;54.30;31.70;;;;;;;10.12;48.20;98970.38;223656;183;147349;-74
2023/03/20 03:21:51;;;;;;;51.50;31.10;;;;;;;10.15;48.19;98969.16;223598;183;138911;-74
2023/03/20 03:26:58;;;;;;;48.60;29.90;;;;;;;10.09;48.26;98968.63;223617;183;138243;-74
2023/03/20 03:32:05;;;;;;;51.70;30.40;;;;;;;10.03;48.21;98965.10;223326;183;148944;-74
2023/03/20 03:37:40;;;;;;;49.90;29.70;;;;;;;10.07;48.11;98964.87;223662;183;151261;-74
2023/03/20 03:42:59;;;;;;;49.80;29.70;;;;;;;10.01;48.07;98966.14;223021;183;137744;-76
2023/03/20 03:48:06;;;;;;;58.70;33.60;;;;;;;10.00;48.19;98961.23;223590;182;147180;-71
2023/03/20 03:53:11;;;;;;;53.30;31.90;;;;;;;10.09;47.99;98962.10;223537;183;139238;-70
2023/03/20 03:58:25;;;;;;;86.70;55.90;;;;;;;10.11;48.14;98959.13;223538;182;138002;-71
2023/03/20 04:03:32;;;;;;;56.50;31.50;;;;;;;10.11;47.97;98957.67;223610;183;148456;-71
2023/03/20 04:08:39;;;;;;;78.40;49.00;;;;;;;10.12;47.96;98963.86;223465;180;138934;-68
2023/03/20 04:13:46;;;;;;;54.40;31.50;;;;;;;10.13;48.46;98964.52;222044;180;137966;-70
2023/03/20 04:18:50;;;;;;;51.30;30.90;;;;;;;10.12;48.00;98966.69;223531;182;148108;-71
2023/03/20 04:23:54;;;;;;;51.90;30.70;;;;;;;10.10;47.90;98967.86;223673;182;138557;-72
2023/03/20 04:28:58;;;;;;;59.90;32.20;;;;;;;10.09;47.94;98967.58;223543;183;137601;-72
2023/03/20 04:34:36;;;;;;;155.10;102.30;;;;;;;10.01;48.28;98967.38;223535;182;147777;-71
2023/03/20 04:39:58;;;;;;;53.20;28.90;;;;;;;10.03;48.27;98967.44;223661;183;138391;-71
2023/03/20 04:45:04;;;;;;;47.10;26.30;;;;;;;10.05;47.91;98970.30;223595;183;137675;-71
2023/03/20 04:50:13;;;;;;;44.50;27.10;;;;;;;10.06;47.87;98974.17;221456;183;147521;-74
2023/03/20 04:55:16;;;;;;;47.90;27.30;;;;;;;10.04;47.80;98977.46;223670;183;138219;-74
2023/03/20 05:00:20;;;;;;;47.40;25.00;;;;;;;10.04;47.73;98974.48;222468;182;137057;-73
2023/03/20 05:05:25;;;;;;;138.00;84.20;;;;;;;10.05;47.84;98974.23;223469;184;147203;-72
2023/03/20 05:10:29;;;;;;;51.90;29.80;;;;;;;10.06;48.25;98975.22;223035;184;138458;-73
2023/03/20 05:15:38;;;;;;;53.80;27.40;;;;;;;9.95;48.72;98982.24;222796;184;137805;-73
2023/03/20 05:20:56;;;;;;;46.20;24.60;;;;;;;9.89;48.46;98986.31;223333;184;147444;-73
2023/03/20 05:26:22;;;;;;;37.20;22.90;;;;;;;9.90;48.21;98988.08;223290;183;138568;-73
2023/03/20 05:31:45;;;;;;;41.40;22.70;;;;;;;10.01;47.93;98989.02;223479;184;137695;-72
2023/03/20 05:36:54;;;;;;;40.40;22.30;;;;;;;10.11;47.80;98990.88;223404;184;148252;-72
2023/03/20 05:42:24;;;;;;;40.30;23.30;;;;;;;10.14;47.73;98988.58;223411;184;138701;-73
2023/03/20 05:47:48;;;;;;;38.40;21.60;;;;;;;10.22;47.45;98984.38;223483;184;137809;-73
2023/03/20 05:53:15;;;;;;;41.10;21.40;;;;;;;10.26;47.37;98988.19;223526;183;148550;-72
2023/03/20 05:58:42;;;;;;;40.40;23.80;;;;;;;10.31;47.35;98991.59;223353;184;139082;-72
2023/03/20 06:04:08;;;;;;;;;;;;;;;10.33;47.31;98996.64;223432;184;137282;-72
2023/03/20 06:09:26;;;;;;;38.10;22.40;;;;;;;10.27;47.57;98996.65;223557;183;147312;-73
2023/03/20 06:14:31;;;;;;;44.20;23.10;;;;;;;10.20;47.47;98997.23;223617;183;138224;-73
2023/03/20 06:19:37;;;;;;;35.10;21.00;;;;;;;10.25;47.33;98997.33;223524;183;137293;-73
2023/03/20 06:24:42;;;;;;;31.60;19.70;;;;;;;10.28;47.07;98996.80;223650;183;147478;-72
2023/03/20 06:29:45;;;;;;;32.50;19.00;;;;;;;10.28;46.87;99000.13;223718;183;138468;-73
2023/03/20 06:34:55;;;;;;;33.30;18.90;;;;;;;10.32;47.00;99002.01;220541;183;137570;-73
2023/03/20 06:40:06;;;;;;;35.90;18.80;;;;;;;10.38;47.26;99005.52;223504;183;151269;-73
2023/03/20 06:45:11;;;;;;;33.40;19.90;;;;;;;10.55;46.90;99003.20;223599;183;139158;-72
2023/03/20 06:50:30;;;;;;;35.70;20.40;;;;;;;10.73;46.55;99011.91;221651;183;137317;-72
2023/03/20 06:55:33;;;;;;;37.70;20.20;;;;;;;10.85;46.49;99009.18;223623;183;147684;-72
2023/03/20 07:00:38;;;;;;;38.80;22.20;;;;;;;10.97;46.00;99015.85;223641;182;138356;-73
2023/03/20 07:05:43;;;;;;;32.30;19.30;;;;;;;11.07;45.72;99021.80;223696;183;137688;-73
2023/03/20 07:10:47;;;;;;;35.90;19.80;;;;;;;11.20;45.53;99024.34;220525;182;147452;-73
2023/03/20 07:15:52;;;;;;;34.50;20.60;;;;;;;11.35;45.43;99022.46;223323;183;138730;-73
2023/03/20 07:21:19;;;;;;;30.40;19.50;;;;;;;11.52;45.18;99022.23;223670;183;138506;-74
2023/03/20 07:26:23;;;;;;;34.70;19.10;;;;;;;11.65;44.70;99022.56;223738;182;147194;-73
2023/03/20 07:31:29;;;;;;;33.70;19.60;;;;;;;11.74;44.33;99016.67;223670;182;138413;-72
2023/03/20 07:36:43;;;;;;;34.70;19.30;;;;;;;11.77;44.37;99018.03;222430;182;137025;-73
2023/03/20 07:41:48;;;;;;;33.60;20.70;;;;;;;11.85;44.50;99016.86;223610;182;147242;-72
2023/03/20 07:47:00;;;;;;;31.60;17.90;;;;;;;11.97;44.64;99016.94;223351;183;138658;-72
2023/03/20 07:52:03;;;;;;;30.20;17.60;;;;;;;12.17;44.66;99019.66;219789;183;138345;-73
2023/03/20 07:57:07;;;;;;;25.70;16.60;;;;;;;12.33;44.25;99020.45;222573;183;154543;-71
2023/03/20 08:02:17;;;;;;;26.00;15.30;;;;;;;12.45;44.09;99023.91;223570;183;138335;-71
2023/03/20 08:07:20;;;;;;;25.00;15.70;;;;;;;12.45;44.13;99023.70;223691;183;137614;-71
2023/03/20 08:12:24;;;;;;;30.30;15.40;;;;;;;12.42;44.26;99021.61;223736;182;147906;-71
2023/03/20 08:17:28;;;;;;;29.00;15.90;;;;;;;12.42;44.37;99027.52;223685;183;138331;-71
2023/03/20 08:22:31;;;;;;;30.10;16.70;;;;;;;12.42;44.67;99025.56;223700;182;137181;-72
2023/03/20 08:27:37;;;;;;;26.80;15.70;;;;;;;12.46;44.80;99022.25;223689;182;147570;-72
2023/03/20 08:32:41;;;;;;;27.70;15.70;;;;;;;12.42;44.82;99026.08;223650;183;138681;-71
2023/03/20 08:37:45;;;;;;;29.50;15.20;;;;;;;12.42;45.13;99028.55;223750;183;137865;-71
2023/03/20 08:42:49;;;;;;;26.00;17.30;;;;;;;12.53;45.22;99028.86;223648;182;146806;-71
2023/03/20 08:47:53;;;;;;;24.40;16.70;;;;;;;12.72;45.44;99033.58;222385;183;139682;-72
2023/03/20 08:52:57;;;;;;;24.20;15.90;;;;;;;12.92;45.30;99032.19;223502;183;136895;-72
2023/03/20 08:58:00;;;;;;;30.10;16.50;;;;;;;13.10;45.51;99034.62;223670;182;147140;-72
2023/03/20 09:03:04;;;;;;;27.70;17.10;;;;;;;13.24;45.33;99032.88;223564;183;138950;-73
2023/03/20 09:08:08;;;;;;;31.80;17.40;;;;;;;13.39;45.39;99031.61;223752;182;137388;-72
2023/03/20 09:13:11;;;;;;;29.60;17.20;;;;;;;13.51;45.45;99028.08;223040;183;146932;-73
2023/03/20 09:18:29;;;;;;;29.40;17.80;;;;;;;13.66;45.44;99025.30;220125;183;138786;-72
2023/03/20 09:23:32;;;;;;;30.20;18.30;;;;;;;13.80;45.33;99024.60;223755;183;137764;-72
2023/03/20 09:28:36;;;;;;;28.50;18.10;;;;;;;13.93;45.57;99016.67;223720;182;147829;-72
2023/03/20 09:33:40;;;;;;;25.20;17.40;;;;;;;14.12;45.66;99021.69;223674;183;138621;-72
2023/03/20 09:38:43;;;;;;;25.60;17.10;;;;;;;14.28;45.84;99023.26;223637;183;138111;-72
2023/03/20 09:44:18;;;;;;;28.70;16.70;;;;;;;14.52;46.04;99017.70;223610;183;147505;-72
2023/03/20 09:49:26;;;;;;;;;;;;;;;14.77;45.86;99020.92;221944;182;139703;-70
2023/03/20 09:54:35;;;;;;;;;;;;;;;14.83;45.55;99028.83;223690;183;131073;-70
2023/03/20 10:00:03;;;;;;;26.50;16.50;;;;;;;14.79;45.55;99026.98;223621;183;147261;-69
2023/03/20 10:05:22;;;;;;;23.50;16.50;;;;;;;14.83;45.81;99026.28;222862;182;139396;-71
2023/03/20 10:11:00;;;;;;;24.50;16.40;;;;;;;14.93;45.68;99031.96;223659;182;137245;-72
2023/03/20 10:16:33;;;;;;;23.20;15.90;;;;;;;15.00;46.04;99029.98;223698;182;147647;-71
2023/03/20 10:21:48;;;;;;;25.60;16.90;;;;;;;15.10;45.89;99026.65;223473;182;139901;-71
2023/03/20 10:26:53;;;;;;;28.60;16.60;;;;;;;15.15;46.04;99025.00;223513;184;138258;-71
2023/03/20 10:32:20;;;;;;;28.90;15.30;;;;;;;15.07;46.21;99025.25;223564;182;146932;-71
2023/03/20 10:37:39;;;;;;;25.70;15.50;;;;;;;14.99;46.69;99019.80;223623;183;140356;-72
2023/03/20 10:42:47;;;;;;;26.40;15.50;;;;;;;15.05;46.62;99020.46;223616;182;137887;-75
2023/03/20 10:47:51;;;;;;;24.50;15.60;;;;;;;15.30;46.60;99012.29;223731;183;147718;-71
2023/03/20 10:52:58;;;;;;;23.50;15.00;;;;;;;15.65;46.02;99012.63;223659;183;138436;-72
2023/03/20 10:58:15;;;;;;;20.90;14.90;;;;;;;15.72;45.80;99008.73;223685;183;138021;-72
2023/03/20 11:03:22;;;;;;;21.50;14.90;;;;;;;15.81;45.71;98998.45;223515;183;230599;-72
2023/03/20 11:08:38;;;;;;;25.60;15.00;;;;;;;15.78;45.69;98998.11;223520;183;138805;-72
2023/03/20 11:13:42;;;;;;;;;;;;;;;15.76;45.86;98995.79;221350;183;137331;-72
2023/03/20 11:18:51;;;;;;;24.30;16.20;;;;;;;15.65;46.20;98999.41;223591;182;147975;-73
2023/03/20 11:23:55;;;;;;;22.20;14.90;;;;;;;15.51;46.71;98996.80;223643;183;139064;-72
2023/03/20 11:28:59;;;;;;;27.10;14.90;;;;;;;15.40;47.15;98989.16;223460;183;137492;-72
2023/03/20 11:34:10;;;;;;;23.10;15.40;;;;;;;15.31;47.51;98984.48;223652;183;147080;-72
2023/03/20 11:39:21;;;;;;;24.80;13.90;;;;;;;15.24;48.12;98983.65;223577;183;138020;-72
2023/03/20 11:44:26;;;;;;;53.40;37.70;;;;;;;15.20;48.50;98992.77;223652;183;137216;-72
2023/03/20 11:49:34;;;;;;;34.20;22.30;;;;;;;15.14;48.81;98987.38;223639;182;147783;-73
2023/03/20 11:54:45;;;;;;;22.20;14.80;;;;;;;15.16;49.32;98994.55;223527;183;138857;-72
2023/03/20 11:59:49;;;;;;;25.60;15.30;;;;;;;15.21;49.32;98987.52;223740;182;137234;-72
2023/03/20 12:04:58;;;;;;;21.80;15.10;;;;;;;15.27;49.55;98980.71;223311;182;147851;-73
2023/03/20 12:10:11;;;;;;;22.20;16.10;;;;;;;15.26;50.02;98976.02;223680;182;138609;-73
2023/03/20 12:15:23;;;;;;;19.70;12.50;;;;;;;15.25;50.41;98971.98;223682;182;137158;-72
2023/03/20 12:20:36;;;;;;;15.30;11.00;;;;;;;15.29;50.34;98971.45;223710;183;146966;-71
2023/03/20 12:25:54;;;;;;;14.70;10.80;;;;;;;15.22;50.65;98968.70;223576;183;138628;-72
2023/03/20 12:31:34;;;;;;;14.10;10.00;;;;;;;15.14;50.97;98965.94;223473;182;137419;-72
2023/03/20 12:36:43;;;;;;;17.70;10.50;;;;;;;15.14;51.20;98962.55;223642;183;146945;-72
2023/03/20 12:42:08;;;;;;;21.80;12.30;;;;;;;15.23;51.30;98961.77;223645;184;139054;-72
2023/03/20 12:47:24;;;;;;;19.20;12.00;;;;;;;15.64;51.28;98958.05;223561;183;137016;-72
2023/03/20 12:52:48;;;;;;;13.10;9.50;;;;;;;16.26;49.84;98949.11;223598;183;147618;-72
2023/03/20 12:58:40;;;;;;;11.30;8.80;;;;;;;16.65;48.26;98943.58;223625;179;138921;-71
2023/03/20 13:04:11;;;;;;;11.30;6.70;;;;;;;16.93;46.95;98940.55;223563;182;137792;-72
2023/03/20 13:09:29;;;;;;;8.80;5.30;;;;;;;17.29;46.10;98935.84;223552;183;148030;-76
2023/03/20 13:14:55;;;;;;;8.50;6.40;;;;;;;17.31;45.05;98929.82;223629;182;138623;-76
2023/03/20 13:20:21;;;;;;;12.30;7.90;;;;;;;17.19;45.24;98928.91;223510;183;137190;-76
2023/03/20 13:25:33;;;;;;;;;;;;;;;17.12;45.44;98928.61;223769;182;146992;-72
2023/03/20 13:30:42;;;;;;;13.90;9.70;;;;;;;17.07;45.83;98921.08;223683;182;139143;-72
2023/03/20 13:35:59;;;;;;;16.80;9.30;;;;;;;17.03;45.89;98921.58;223749;183;138582;-72
2023/03/20 13:41:08;;;;;;;15.00;9.40;;;;;;;16.70;46.34;98921.63;223527;183;148175;-74
2023/03/20 13:46:17;;;;;;;16.80;12.00;;;;;;;16.49;47.36;98926.15;223585;183;138270;-72
2023/03/20 13:51:29;;;;;;;16.80;12.50;;;;;;;16.32;48.37;98922.97;223121;183;137099;-71
2023/03/20 13:56:56;;;;;;;18.60;12.00;;;;;;;16.24;48.75;98918.30;221952;183;148197;-73
2023/03/20 14:02:20;;;;;;;14.50;11.70;;;;;;;16.10;48.92;98925.65;223276;183;138728;-71
2023/03/20 14:07:37;;;;;;;20.60;13.80;;;;;;;15.87;49.58;98927.41;223705;182;138087;-72
2023/03/20 14:12:40;;;;;;;21.10;12.80;;;;;;;15.77;50.04;98926.00;223683;182;147738;-71
2023/03/20 14:17:47;;;;;;;21.90;13.80;;;;;;;15.71;50.35;98929.36;223729;183;138842;-72
2023/03/20 14:22:51;;;;;;;25.00;15.90;;;;;;;15.68;50.50;98932.50;223651;183;137003;-72
2023/03/20 14:28:12;;;;;;;24.00;14.90;;;;;;;15.62;50.75;98931.33;223601;183;147092;-71
2023/03/20 14:33:17;;;;;;;27.10;15.80;;;;;;;15.58;50.88;98930.95;223058;182;138609;-73
2023/03/20 14:38:58;;;;;;;25.80;15.60;;;;;;;15.61;51.04;98930.71;223535;182;137289;-74
2023/03/20 14:44:08;;;;;;;24.30;15.50;;;;;;;15.60;51.04;98932.42;223575;183;148785;-71
2023/03/20 14:49:56;;;;;;;22.40;16.70;;;;;;;15.62;50.92;98931.86;223684;182;138874;-71
2023/03/20 14:55:21;;;;;;;34.60;18.20;;;;;;;15.60;51.39;98931.52;223528;183;137627;-71
2023/03/20 15:00:32;;;;;;;22.80;16.40;;;;;;;15.55;51.77;98930.88;223672;182;148210;-71
2023/03/20 15:05:39;;;;;;;24.30;16.30;;;;;;;15.51;51.96;98930.13;223540;182;139682;-71
2023/03/20 15:10:50;;;;;;;24.40;16.60;;;;;;;15.43;52.03;98930.66;223625;183;137457;-71
2023/03/20 15:15:56;;;;;;;22.60;15.30;;;;;;;15.31;52.45;98936.77;223683;182;147224;-72
2023/03/20 15:20:59;;;;;;;41.30;25.60;;;;;;;15.26;52.76;98935.64;223490;183;138777;-71
2023/03/20 15:26:03;;;;;;;26.10;16.40;;;;;;;15.23;53.02;98937.30;223651;183;137669;-75
2023/03/20 15:31:22;;;;;;;41.60;31.80;;;;;;;15.21;53.22;98932.45;223513;182;147462;-76
2023/03/20 15:36:29;;;;;;;43.90;32.00;;;;;;;15.19;53.41;98932.82;223556;182;138910;-76
2023/03/20 15:41:51;;;;;;;31.40;16.90;;;;;;;15.19;53.64;98934.79;223470;183;137162;-75
2023/03/20 15:47:00;;;;;;;24.00;17.60;;;;;;;15.05;54.88;98944.33;223390;182;148229;-75
2023/03/20 15:52:17;;;;;;;26.10;18.00;;;;;;;14.91;56.33;98948.71;223302;184;138761;-75
2023/03/20 15:57:34;;;;;;;26.70;18.80;;;;;;;14.74;57.56;98946.49;223514;183;137387;-75
2023/03/20 16:02:39;;;;;;;23.80;17.70;;;;;;;14.61;58.49;98944.89;223473;216;147546;-75
2023/03/20 16:07:43;;;;;;;135.70;87.10;;;;;;;14.53;58.80;98944.98;223366;183;138676;-73
2023/03/20 16:12:49;;;;;;;32.50;22.50;;;;;;;14.46;59.35;98944.92;223335;182;137071;-75
2023/03/20 16:17:59;;;;;;;89.40;70.30;;;;;;;14.45;59.36;98950.01;223404;188;148324;-75
2023/03/20 16:23:06;;;;;;;31.40;23.40;;;;;;;14.49;59.55;98957.55;223342;183;139002;-74
2023/03/20 16:28:12;;;;;;;28.50;19.10;;;;;;;14.52;59.22;98957.17;223456;182;137333;-76
2023/03/20 16:33:16;;;;;;;28.40;20.10;;;;;;;14.56;59.41;98957.24;223438;182;147035;-75
2023/03/20 16:38:26;;;;;;;27.30;17.60;;;;;;;14.51;59.31;98952.98;223360;179;138086;-75
2023/03/20 16:43:31;;;;;;;24.30;19.00;;;;;;;14.40;58.95;98954.86;223398;182;137440;-75
2023/03/20 16:48:38;;;;;;;247.90;201.00;;;;;;;14.42;58.34;98953.41;223423;183;147320;-74
2023/03/20 16:53:47;;;;;;;32.40;25.70;;;;;;;14.49;57.87;98954.20;223404;202;138013;-73
2023/03/20 16:59:08;;;;;;;30.00;23.80;;;;;;;14.51;57.41;98952.98;223119;183;137245;-76
2023/03/20 17:04:21;;;;;;;31.20;24.60;;;;;;;14.53;57.07;98951.76;222137;183;147786;-76
2023/03/20 17:09:28;;;;;;;33.20;25.50;;;;;;;14.49;56.87;98947.61;223401;183;138799;-76
2023/03/20 17:14:31;;;;;;;33.30;25.40;;;;;;;14.47;56.66;98942.42;223399;183;138263;-79
2023/03/20 17:19:35;;;;;;;32.00;26.20;;;;;;;14.46;56.66;98947.67;223562;182;147229;-78
2023/03/20 17:24:38;;;;;;;35.80;26.10;;;;;;;14.47;56.51;98945.56;223573;183;138496;-78
2023/03/20 17:29:43;;;;;;;97.70;75.80;;;;;;;14.45;56.45;98946.31;223545;183;137745;-76
2023/03/20 17:34:46;;;;;;;39.00;31.30;;;;;;;14.41;56.83;98949.40;223513;183;147533;-74
2023/03/20 17:39:49;;;;;;;32.50;26.30;;;;;;;14.41;56.68;98955.17;223590;183;138906;-74
2023/03/20 17:44:53;;;;;;;33.10;27.10;;;;;;;14.40;56.70;98960.57;223515;183;137011;-75
2023/03/20 17:49:56;;;;;;;36.60;26.20;;;;;;;14.41;56.74;98959.60;223609;179;147121;-77
2023/03/20 17:55:01;;;;;;;34.80;26.50;;;;;;;14.40;56.68;98957.75;223570;183;138825;-64
2023/03/20 18:00:19;;;;;;;36.20;26.70;;;;;;;14.36;56.72;98959.14;223664;182;137308;-67
2023/03/20 18:05:22;;;;;;;36.70;27.30;;;;;;;14.34;56.81;98958.60;223620;183;147775;-67
2023/03/20 18:10:30;;;;;;;40.10;27.00;;;;;;;14.32;56.91;98959.81;223638;182;138505;-68
2023/03/20 18:15:37;;;;;;;34.40;26.50;;;;;;;14.30;56.89;98959.25;223620;183;137560;-66
2023/03/20 18:20:41;;;;;;;34.10;25.50;;;;;;;14.26;57.01;98961.20;223649;182;146859;-67
2023/03/20 18:25:44;;;;;;;33.50;25.20;;;;;;;14.17;57.17;98960.82;223502;182;138584;-67
2023/03/20 18:30:48;;;;;;;31.90;25.40;;;;;;;14.13;57.35;98964.50;223728;182;141076;-66
2023/03/20 18:35:53;;;;;;;36.20;25.70;;;;;;;14.11;57.50;98967.70;223688;183;147214;-66
2023/03/20 18:40:58;;;;;;;34.30;25.70;;;;;;;14.05;57.70;98972.11;223441;182;139140;-67
2023/03/20 18:46:01;;;;;;;64.40;47.30;;;;;;;14.07;58.19;98974.23;223565;182;137262;-68
2023/03/20 18:51:05;;;;;;;38.60;27.80;;;;;;;14.12;58.17;98967.98;223497;182;147243;-71
2023/03/20 18:56:19;;;;;;;37.80;27.90;;;;;;;14.10;58.18;98967.09;223552;182;140132;-68
2023/03/20 19:01:26;;;;;;;39.70;28.40;;;;;;;14.05;58.26;98964.21;223652;182;140615;-68
2023/03/20 19:06:37;;;;;;;41.40;28.50;;;;;;;14.02;58.39;98968.75;223596;183;146877;-69
2023/03/20 19:11:40;;;;;;;38.00;29.00;;;;;;;13.97;58.62;98965.75;223614;183;138457;-69
2023/03/20 19:16:45;;;;;;;40.80;28.60;;;;;;;13.99;58.76;98960.42;223640;178;138265;-71
2023/03/20 19:21:48;;;;;;;40.50;29.80;;;;;;;13.99;58.85;98964.37;223555;182;147809;-71
2023/03/20 19:26:55;;;;;;;39.90;29.20;;;;;;;13.95;58.92;98967.11;223635;183;138804;-71
2023/03/20 19:31:59;;;;;;;43.20;31.10;;;;;;;13.92;58.99;98969.11;223530;183;137964;-67
2023/03/20 19:37:05;;;;;;;38.50;28.70;;;;;;;13.89;59.12;98970.61;223628;183;147389;-69
2023/03/20 19:42:11;;;;;;;39.50;28.00;;;;;;;13.83;59.21;98966.98;223654;182;137786;-69
2023/03/20 19:47:38;;;;;;;40.10;28.20;;;;;;;13.80;59.22;98975.58;223639;183;137365;-71
2023/03/20 19:52:49;;;;;;;39.40;28.00;;;;;;;13.75;59.29;98976.85;223630;182;146988;-69
2023/03/20 19:57:56;;;;;;;37.30;27.90;;;;;;;13.70;59.34;98977.61;223575;182;139627;-69
2023/03/20 20:03:06;;;;;;;39.10;28.20;;;;;;;13.66;59.46;98977.77;223611;182;137976;-69
2023/03/20 20:08:20;;;;;;;43.10;29.60;;;;;;;13.60;59.61;98975.32;223673;182;146828;-67
2023/03/20 20:13:38;;;;;;;43.40;29.70;;;;;;;13.58;59.72;98971.61;223572;182;139025;-68
2023/03/20 20:19:04;;;;;;;41.70;30.20;;;;;;;13.51;59.83;98967.65;223683;182;137050;-68
2023/03/20 20:24:08;;;;;;;44.80;31.70;;;;;;;13.41;60.00;98965.86;223608;182;147111;-66
2023/03/20 20:29:13;;;;;;;43.10;31.60;;;;;;;13.38;60.21;98966.80;223539;182;138836;-66
2023/03/20 20:34:21;;;;;;;39.60;31.40;;;;;;;13.35;60.31;98957.24;223583;183;137389;-68
2023/03/20 20:42:54;;;;;;;43.80;32.50;;;;;;;13.31;60.66;98960.41;220244;191;666152;-67
2023/03/20 20:48:08;;;;;;;49.20;34.10;;;;;;;13.24;60.88;98957.55;223285;185;245287;-69
2023/03/20 20:53:13;;;;;;;42.20;31.60;;;;;;;13.22;60.99;98958.36;223337;186;143712;-68
2023/03/20 20:58:17;;;;;;;42.80;31.40;;;;;;;13.25;61.07;98957.81;223292;185;138348;-69
2023/03/20 21:03:27;;;;;;;42.70;32.40;;;;;;;13.26;61.11;98958.99;223319;185;137721;-69
2023/03/20 21:08:37;;;;;;;46.20;33.50;;;;;;;13.26;61.13;98963.64;223425;185;143564;-68
2023/03/20 21:13:58;;;;;;;41.30;33.00;;;;;;;13.30;61.13;98961.05;223835;183;138341;-68
2023/03/20 21:19:02;;;;;;;47.10;34.70;;;;;;;13.28;61.11;98960.98;223631;182;137341;-68
2023/03/20 21:24:38;;;;;;;45.40;34.30;;;;;;;13.26;61.18;98959.20;223778;182;143447;-67
2023/03/20 21:29:50;;;;;;;49.70;35.30;;;;;;;13.21;61.24;98961.14;223826;182;138217;-68
2023/03/20 21:34:56;;;;;;;49.60;35.40;;;;;;;13.18;61.37;98958.62;223604;182;136999;-69
2023/03/20 21:40:05;;;;;;;52.80;38.00;;;;;;;13.17;61.44;98959.81;223723;182;146795;-69
2023/03/20 21:45:22;;;;;;;51.50;38.20;;;;;;;13.15;61.51;98958.05;223633;183;138801;-68
2023/03/20 21:51:44;;;;;;;54.10;40.40;;;;;;;13.10;61.66;98965.64;223617;183;136653;-69
2023/03/20 21:57:45;;;;;;;60.90;41.20;;;;;;;13.04;61.79;98963.05;223861;183;146583;-70
2023/03/20 22:03:39;;;;;;;54.60;38.50;;;;;;;12.99;61.88;98967.70;223895;184;138473;-69
2023/03/20 22:09:09;;;;;;;;;;;;;;;;;;;;;
2023/03/20 23:25:29;;;;;;;53.10;39.00;;;;;;;12.40;63.57;98988.35;220725;194;666225;-71
2023/03/20 23:30:43;;;;;;;52.80;35.70;;;;;;;12.37;63.65;98984.42;223223;184;137738;-73
2023/03/20 23:36:03;;;;;;;57.60;37.40;;;;;;;12.44;63.62;98976.30;223531;184;145054;-73
2023/03/20 23:41:26;;;;;;;51.70;37.40;;;;;;;12.50;63.33;98976.75;223528;184;139190;-73
2023/03/20 23:46:51;;;;;;;56.20;38.10;;;;;;;12.49;63.37;98970.28;223641;184;136865;-72
2023/03/20 23:51:55;;;;;;;54.60;38.10;;;;;;;12.42;63.56;98965.41;223698;184;144747;-73
2023/03/20 23:56:59;;;;;;;58.50;38.40;;;;;;;12.35;63.86;98961.13;223648;183;139548;-73
